sensor_id;sensor_type;location;lat;lon;timestamp;P1;durP1;ratioP1;P2;durP2;ratioP2
68821;SDS011;55834;50.870;4.606;2024-02-21T00:01:16;9.45;;;4.90;;
68821;SDS011;55834;50.870;4.606;2024-02-21T00:03:42;10.57;;;5.30;;
68821;SDS011;55834;50.870;4.606;2024-02-21T00:06:07;9.13;;;4.15;;
68821;SDS011;55834;50.870;4.606;2024-02-21T00:08:33;6.70;;;4.28;;
68821;SDS011;55834;50.870;4.606;2024-02-21T00:10:58;12.20;;;5.13;;
68821;SDS011;55834;50.870;4.606;2024-02-21T00:13:24;11.23;;;5.23;;
68821;SDS011;55834;50.870;4.606;2024-02-21T00:15:49;7.20;;;4.20;;
68821;SDS011;55834;50.870;4.606;2024-02-21T00:18:15;11.88;;;4.78;;
68821;SDS011;55834;50.870;4.606;2024-02-21T00:20:40;12.90;;;4.57;;
68821;SDS011;55834;50.870;4.606;2024-02-21T00:23:05;12.30;;;4.33;;
68821;SDS011;55834;50.870;4.606;2024-02-21T00:25:31;11.57;;;5.43;;
68821;SDS011;55834;50.870;4.606;2024-02-21T00:27:56;11.95;;;5.10;;
68821;SDS011;55834;50.870;4.606;2024-02-21T00:30:21;11.87;;;5.00;;
68821;SDS011;55834;50.870;4.606;2024-02-21T00:32:47;11.05;;;3.45;;
68821;SDS011;55834;50.870;4.606;2024-02-21T00:35:13;10.05;;;3.60;;
68821;SDS011;55834;50.870;4.606;2024-02-21T00:37:39;5.47;;;3.65;;
68821;SDS011;55834;50.870;4.606;2024-02-21T00:40:05;9.68;;;4.20;;
68821;SDS011;55834;50.870;4.606;2024-02-21T00:42:30;10.55;;;5.60;;
68821;SDS011;55834;50.870;4.606;2024-02-21T00:44:56;10.63;;;6.00;;
68821;SDS011;55834;50.870;4.606;2024-02-21T00:47:21;17.20;;;6.17;;
68821;SDS011;55834;50.870;4.606;2024-02-21T00:49:47;13.60;;;5.60;;
68821;SDS011;55834;50.870;4.606;2024-02-21T00:52:12;12.37;;;5.73;;
68821;SDS011;55834;50.870;4.606;2024-02-21T00:54:37;15.33;;;6.67;;
68821;SDS011;55834;50.870;4.606;2024-02-21T00:57:03;13.40;;;7.10;;
68821;SDS011;55834;50.870;4.606;2024-02-21T00:59:28;14.57;;;6.80;;
68821;SDS011;55834;50.870;4.606;2024-02-21T01:01:53;12.93;;;5.53;;
68821;SDS011;55834;50.870;4.606;2024-02-21T01:04:19;14.37;;;6.50;;
68821;SDS011;55834;50.870;4.606;2024-02-21T01:06:44;15.43;;;6.27;;
68821;SDS011;55834;50.870;4.606;2024-02-21T01:09:10;9.50;;;5.47;;
68821;SDS011;55834;50.870;4.606;2024-02-21T01:11:36;18.23;;;8.25;;
68821;SDS011;55834;50.870;4.606;2024-02-21T01:14:02;11.43;;;5.55;;
68821;SDS011;55834;50.870;4.606;2024-02-21T01:16:27;12.88;;;6.43;;
68821;SDS011;55834;50.870;4.606;2024-02-21T01:18:52;12.83;;;6.63;;
68821;SDS011;55834;50.870;4.606;2024-02-21T01:21:18;13.80;;;6.40;;
68821;SDS011;55834;50.870;4.606;2024-02-21T01:23:43;13.77;;;6.23;;
68821;SDS011;55834;50.870;4.606;2024-02-21T01:26:09;15.98;;;7.30;;
68821;SDS011;55834;50.870;4.606;2024-02-21T01:28:38;11.60;;;5.63;;
68821;SDS011;55834;50.870;4.606;2024-02-21T01:31:03;11.60;;;5.72;;
68821;SDS011;55834;50.870;4.606;2024-02-21T01:33:28;12.03;;;5.57;;
68821;SDS011;55834;50.870;4.606;2024-02-21T01:35:59;13.43;;;5.45;;
68821;SDS011;55834;50.870;4.606;2024-02-21T01:38:26;16.25;;;6.28;;
68821;SDS011;55834;50.870;4.606;2024-02-21T01:40:51;10.63;;;4.93;;
68821;SDS011;55834;50.870;4.606;2024-02-21T01:43:17;11.47;;;5.30;;
68821;SDS011;55834;50.870;4.606;2024-02-21T01:45:51;13.85;;;5.75;;
68821;SDS011;55834;50.870;4.606;2024-02-21T01:48:19;11.32;;;5.18;;
68821;SDS011;55834;50.870;4.606;2024-02-21T01:50:52;16.95;;;6.45;;
68821;SDS011;55834;50.870;4.606;2024-02-21T01:53:29;9.43;;;5.40;;
68821;SDS011;55834;50.870;4.606;2024-02-21T01:55:55;13.05;;;6.72;;
68821;SDS011;55834;50.870;4.606;2024-02-21T01:58:21;10.68;;;5.20;;
68821;SDS011;55834;50.870;4.606;2024-02-21T02:00:47;12.07;;;6.07;;
68821;SDS011;55834;50.870;4.606;2024-02-21T02:03:13;14.07;;;6.78;;
68821;SDS011;55834;50.870;4.606;2024-02-21T02:05:48;16.15;;;7.13;;
68821;SDS011;55834;50.870;4.606;2024-02-21T02:08:15;11.82;;;5.55;;
68821;SDS011;55834;50.870;4.606;2024-02-21T02:10:41;9.30;;;5.72;;
68821;SDS011;55834;50.870;4.606;2024-02-21T02:13:08;12.85;;;6.38;;
68821;SDS011;55834;50.870;4.606;2024-02-21T02:15:37;13.27;;;5.13;;
68821;SDS011;55834;50.870;4.606;2024-02-21T02:18:06;14.45;;;5.80;;
68821;SDS011;55834;50.870;4.606;2024-02-21T02:20:32;10.80;;;5.32;;
68821;SDS011;55834;50.870;4.606;2024-02-21T02:22:58;12.13;;;5.77;;
68821;SDS011;55834;50.870;4.606;2024-02-21T02:25:25;12.07;;;5.47;;
68821;SDS011;55834;50.870;4.606;2024-02-21T02:27:51;9.80;;;5.13;;
68821;SDS011;55834;50.870;4.606;2024-02-21T02:30:17;12.20;;;6.13;;
68821;SDS011;55834;50.870;4.606;2024-02-21T02:32:45;8.90;;;3.77;;
68821;SDS011;55834;50.870;4.606;2024-02-21T02:35:13;12.52;;;4.90;;
68821;SDS011;55834;50.870;4.606;2024-02-21T02:37:39;11.82;;;5.28;;
68821;SDS011;55834;50.870;4.606;2024-02-21T02:40:05;18.30;;;6.73;;
68821;SDS011;55834;50.870;4.606;2024-02-21T02:42:32;11.60;;;5.22;;
68821;SDS011;55834;50.870;4.606;2024-02-21T02:44:57;12.43;;;5.37;;
68821;SDS011;55834;50.870;4.606;2024-02-21T02:47:23;11.63;;;5.00;;
68821;SDS011;55834;50.870;4.606;2024-02-21T02:49:48;9.82;;;5.57;;
68821;SDS011;55834;50.870;4.606;2024-02-21T02:52:16;13.48;;;5.40;;
68821;SDS011;55834;50.870;4.606;2024-02-21T02:54:42;11.10;;;5.25;;
68821;SDS011;55834;50.870;4.606;2024-02-21T02:57:07;10.77;;;5.83;;
68821;SDS011;55834;50.870;4.606;2024-02-21T02:59:33;12.23;;;5.97;;
68821;SDS011;55834;50.870;4.606;2024-02-21T03:01:58;10.85;;;5.22;;
68821;SDS011;55834;50.870;4.606;2024-02-21T03:04:24;6.70;;;4.47;;
68821;SDS011;55834;50.870;4.606;2024-02-21T03:06:49;15.23;;;6.03;;
68821;SDS011;55834;50.870;4.606;2024-02-21T03:09:15;13.77;;;5.63;;
68821;SDS011;55834;50.870;4.606;2024-02-21T03:11:42;10.77;;;5.70;;
68821;SDS011;55834;50.870;4.606;2024-02-21T03:14:09;11.38;;;5.05;;
68821;SDS011;55834;50.870;4.606;2024-02-21T03:16:34;8.60;;;4.55;;
68821;SDS011;55834;50.870;4.606;2024-02-21T03:19:00;12.27;;;5.27;;
68821;SDS011;55834;50.870;4.606;2024-02-21T03:21:25;12.30;;;5.60;;
68821;SDS011;55834;50.870;4.606;2024-02-21T03:23:50;10.20;;;6.07;;
68821;SDS011;55834;50.870;4.606;2024-02-21T03:26:16;16.63;;;6.82;;
68821;SDS011;55834;50.870;4.606;2024-02-21T03:28:42;10.75;;;4.93;;
68821;SDS011;55834;50.870;4.606;2024-02-21T03:31:10;9.13;;;4.95;;
68821;SDS011;55834;50.870;4.606;2024-02-21T03:33:37;13.23;;;5.90;;
68821;SDS011;55834;50.870;4.606;2024-02-21T03:36:02;9.68;;;5.13;;
68821;SDS011;55834;50.870;4.606;2024-02-21T03:38:28;12.45;;;4.97;;
68821;SDS011;55834;50.870;4.606;2024-02-21T03:40:54;9.43;;;4.65;;
68821;SDS011;55834;50.870;4.606;2024-02-21T03:43:19;13.60;;;5.88;;
68821;SDS011;55834;50.870;4.606;2024-02-21T03:45:44;9.37;;;4.87;;
68821;SDS011;55834;50.870;4.606;2024-02-21T03:48:10;8.33;;;5.27;;
68821;SDS011;55834;50.870;4.606;2024-02-21T03:50:35;11.23;;;5.20;;
68821;SDS011;55834;50.870;4.606;2024-02-21T03:53:00;16.43;;;6.50;;
68821;SDS011;55834;50.870;4.606;2024-02-21T03:55:26;11.37;;;4.60;;
68821;SDS011;55834;50.870;4.606;2024-02-21T03:57:51;10.80;;;4.43;;
68821;SDS011;55834;50.870;4.606;2024-02-21T04:00:17;15.43;;;5.70;;
68821;SDS011;55834;50.870;4.606;2024-02-21T04:02:43;11.10;;;5.05;;
68821;SDS011;55834;50.870;4.606;2024-02-21T04:05:08;13.80;;;5.47;;
68821;SDS011;55834;50.870;4.606;2024-02-21T04:07:36;8.15;;;5.07;;
68821;SDS011;55834;50.870;4.606;2024-02-21T04:10:02;13.88;;;6.43;;
68821;SDS011;55834;50.870;4.606;2024-02-21T04:12:28;14.07;;;6.75;;
68821;SDS011;55834;50.870;4.606;2024-02-21T04:14:53;11.83;;;4.87;;
68821;SDS011;55834;50.870;4.606;2024-02-21T04:17:19;14.10;;;5.53;;
68821;SDS011;55834;50.870;4.606;2024-02-21T04:19:44;9.77;;;5.50;;
68821;SDS011;55834;50.870;4.606;2024-02-21T04:22:09;8.80;;;5.77;;
68821;SDS011;55834;50.870;4.606;2024-02-21T04:24:35;9.70;;;5.30;;
68821;SDS011;55834;50.870;4.606;2024-02-21T04:27:00;12.00;;;6.37;;
68821;SDS011;55834;50.870;4.606;2024-02-21T04:29:26;9.45;;;5.65;;
68821;SDS011;55834;50.870;4.606;2024-02-21T04:31:52;9.10;;;5.35;;
68821;SDS011;55834;50.870;4.606;2024-02-21T04:34:18;11.33;;;5.23;;
68821;SDS011;55834;50.870;4.606;2024-02-21T04:36:43;11.20;;;5.77;;
68821;SDS011;55834;50.870;4.606;2024-02-21T04:39:08;9.70;;;4.60;;
68821;SDS011;55834;50.870;4.606;2024-02-21T04:41:34;8.27;;;4.77;;
68821;SDS011;55834;50.870;4.606;2024-02-21T04:43:59;8.60;;;5.37;;
68821;SDS011;55834;50.870;4.606;2024-02-21T04:46:25;11.35;;;5.78;;
68821;SDS011;55834;50.870;4.606;2024-02-21T04:48:50;11.98;;;5.40;;
68821;SDS011;55834;50.870;4.606;2024-02-21T04:51:15;10.63;;;5.37;;
68821;SDS011;55834;50.870;4.606;2024-02-21T04:53:41;12.30;;;5.90;;
68821;SDS011;55834;50.870;4.606;2024-02-21T04:56:06;9.80;;;5.77;;
68821;SDS011;55834;50.870;4.606;2024-02-21T04:58:31;11.50;;;5.80;;
68821;SDS011;55834;50.870;4.606;2024-02-21T05:00:57;12.40;;;6.37;;
68821;SDS011;55834;50.870;4.606;2024-02-21T05:03:23;10.70;;;6.60;;
68821;SDS011;55834;50.870;4.606;2024-02-21T05:05:48;16.23;;;6.73;;
68821;SDS011;55834;50.870;4.606;2024-02-21T05:08:13;14.82;;;6.28;;
68821;SDS011;55834;50.870;4.606;2024-02-21T05:10:39;16.50;;;7.20;;
68821;SDS011;55834;50.870;4.606;2024-02-21T05:13:04;11.83;;;5.37;;
68821;SDS011;55834;50.870;4.606;2024-02-21T05:15:30;14.00;;;7.78;;
68821;SDS011;55834;50.870;4.606;2024-02-21T05:17:56;7.60;;;4.70;;
68821;SDS011;55834;50.870;4.606;2024-02-21T05:20:21;10.43;;;5.90;;
68821;SDS011;55834;50.870;4.606;2024-02-21T05:22:46;14.80;;;6.57;;
68821;SDS011;55834;50.870;4.606;2024-02-21T05:25:12;13.33;;;6.87;;
68821;SDS011;55834;50.870;4.606;2024-02-21T05:27:37;13.65;;;6.55;;
68821;SDS011;55834;50.870;4.606;2024-02-21T05:30:04;12.88;;;5.63;;
68821;SDS011;55834;50.870;4.606;2024-02-21T05:32:31;11.10;;;6.00;;
68821;SDS011;55834;50.870;4.606;2024-02-21T05:34:57;10.00;;;5.78;;
68821;SDS011;55834;50.870;4.606;2024-02-21T05:37:23;10.43;;;6.05;;
68821;SDS011;55834;50.870;4.606;2024-02-21T05:39:48;10.95;;;5.30;;
68821;SDS011;55834;50.870;4.606;2024-02-21T05:42:14;12.40;;;5.67;;
68821;SDS011;55834;50.870;4.606;2024-02-21T05:44:39;14.33;;;6.43;;
68821;SDS011;55834;50.870;4.606;2024-02-21T05:47:04;41.23;;;16.57;;
68821;SDS011;55834;50.870;4.606;2024-02-21T05:49:34;18.73;;;9.32;;
68821;SDS011;55834;50.870;4.606;2024-02-21T05:52:00;7.57;;;4.90;;
68821;SDS011;55834;50.870;4.606;2024-02-21T05:54:25;9.03;;;5.87;;
68821;SDS011;55834;50.870;4.606;2024-02-21T05:56:50;7.57;;;4.97;;
68821;SDS011;55834;50.870;4.606;2024-02-21T05:59:17;9.65;;;5.53;;
68821;SDS011;55834;50.870;4.606;2024-02-21T06:01:42;7.70;;;4.13;;
68821;SDS011;55834;50.870;4.606;2024-02-21T06:04:07;8.20;;;4.77;;
68821;SDS011;55834;50.870;4.606;2024-02-21T06:06:33;11.70;;;4.90;;
68821;SDS011;55834;50.870;4.606;2024-02-21T06:08:59;6.25;;;4.20;;
68821;SDS011;55834;50.870;4.606;2024-02-21T06:11:25;7.85;;;3.95;;
68821;SDS011;55834;50.870;4.606;2024-02-21T06:13:50;6.70;;;3.53;;
68821;SDS011;55834;50.870;4.606;2024-02-21T06:16:15;5.20;;;3.87;;
68821;SDS011;55834;50.870;4.606;2024-02-21T06:18:41;6.43;;;4.20;;
68821;SDS011;55834;50.870;4.606;2024-02-21T06:21:06;5.88;;;4.50;;
68821;SDS011;55834;50.870;4.606;2024-02-21T06:23:32;7.28;;;3.53;;
68821;SDS011;55834;50.870;4.606;2024-02-21T06:25:57;8.00;;;3.83;;
68821;SDS011;55834;50.870;4.606;2024-02-21T06:28:22;8.17;;;4.37;;
68821;SDS011;55834;50.870;4.606;2024-02-21T06:30:48;6.80;;;3.92;;
68821;SDS011;55834;50.870;4.606;2024-02-21T06:33:13;7.27;;;4.43;;
68821;SDS011;55834;50.870;4.606;2024-02-21T06:35:39;7.40;;;4.60;;
68821;SDS011;55834;50.870;4.606;2024-02-21T06:38:06;7.75;;;4.75;;
68821;SDS011;55834;50.870;4.606;2024-02-21T06:40:31;4.97;;;3.10;;
68821;SDS011;55834;50.870;4.606;2024-02-21T06:43:03;5.80;;;3.03;;
68821;SDS011;55834;50.870;4.606;2024-02-21T06:45:28;7.03;;;3.80;;
68821;SDS011;55834;50.870;4.606;2024-02-21T06:47:54;8.90;;;3.65;;
68821;SDS011;55834;50.870;4.606;2024-02-21T06:50:19;6.18;;;3.55;;
68821;SDS011;55834;50.870;4.606;2024-02-21T06:52:44;6.17;;;3.50;;
68821;SDS011;55834;50.870;4.606;2024-02-21T06:55:10;9.90;;;3.93;;
68821;SDS011;55834;50.870;4.606;2024-02-21T06:57:35;6.37;;;3.60;;
68821;SDS011;55834;50.870;4.606;2024-02-21T07:00:00;5.23;;;3.60;;
68821;SDS011;55834;50.870;4.606;2024-02-21T07:02:26;7.10;;;3.60;;
68821;SDS011;55834;50.870;4.606;2024-02-21T07:04:51;7.37;;;4.03;;
68821;SDS011;55834;50.870;4.606;2024-02-21T07:07:16;8.20;;;3.33;;
68821;SDS011;55834;50.870;4.606;2024-02-21T07:09:42;7.37;;;3.83;;
68821;SDS011;55834;50.870;4.606;2024-02-21T07:12:07;5.13;;;3.90;;
68821;SDS011;55834;50.870;4.606;2024-02-21T07:14:32;7.95;;;4.25;;
68821;SDS011;55834;50.870;4.606;2024-02-21T07:16:58;7.72;;;4.45;;
68821;SDS011;55834;50.870;4.606;2024-02-21T07:19:23;8.83;;;4.53;;
68821;SDS011;55834;50.870;4.606;2024-02-21T07:21:49;6.15;;;3.97;;
68821;SDS011;55834;50.870;4.606;2024-02-21T07:24:14;7.63;;;4.50;;
68821;SDS011;55834;50.870;4.606;2024-02-21T07:26:43;8.10;;;4.78;;
68821;SDS011;55834;50.870;4.606;2024-02-21T07:29:08;6.13;;;4.10;;
68821;SDS011;55834;50.870;4.606;2024-02-21T07:31:40;9.68;;;4.55;;
68821;SDS011;55834;50.870;4.606;2024-02-21T07:34:06;8.50;;;5.28;;
68821;SDS011;55834;50.870;4.606;2024-02-21T07:36:32;6.55;;;4.95;;
68821;SDS011;55834;50.870;4.606;2024-02-21T07:38:57;8.67;;;4.00;;
68821;SDS011;55834;50.870;4.606;2024-02-21T07:41:23;6.78;;;4.40;;
68821;SDS011;55834;50.870;4.606;2024-02-21T07:43:48;6.57;;;4.72;;
68821;SDS011;55834;50.870;4.606;2024-02-21T07:46:14;6.33;;;4.73;;
68821;SDS011;55834;50.870;4.606;2024-02-21T07:48:39;7.65;;;4.55;;
68821;SDS011;55834;50.870;4.606;2024-02-21T07:51:05;5.97;;;4.80;;
68821;SDS011;55834;50.870;4.606;2024-02-21T07:53:30;7.00;;;4.03;;
68821;SDS011;55834;50.870;4.606;2024-02-21T07:55:55;10.33;;;5.10;;
68821;SDS011;55834;50.870;4.606;2024-02-21T07:58:21;6.40;;;4.57;;
68821;SDS011;55834;50.870;4.606;2024-02-21T08:00:46;7.60;;;4.30;;
68821;SDS011;55834;50.870;4.606;2024-02-21T08:03:12;9.68;;;4.25;;
68821;SDS011;55834;50.870;4.606;2024-02-21T08:05:37;8.60;;;4.30;;
68821;SDS011;55834;50.870;4.606;2024-02-21T08:08:03;5.43;;;3.77;;
68821;SDS011;55834;50.870;4.606;2024-02-21T08:10:29;9.48;;;4.30;;
68821;SDS011;55834;50.870;4.606;2024-02-21T08:12:54;7.73;;;4.37;;
68821;SDS011;55834;50.870;4.606;2024-02-21T08:15:20;7.63;;;4.33;;
68821;SDS011;55834;50.870;4.606;2024-02-21T08:17:49;12.30;;;4.82;;
68821;SDS011;55834;50.870;4.606;2024-02-21T08:20:14;8.37;;;4.37;;
68821;SDS011;55834;50.870;4.606;2024-02-21T08:22:40;8.77;;;4.57;;
68821;SDS011;55834;50.870;4.606;2024-02-21T08:25:05;6.37;;;4.20;;
68821;SDS011;55834;50.870;4.606;2024-02-21T08:27:31;6.22;;;4.13;;
68821;SDS011;55834;50.870;4.606;2024-02-21T08:29:56;7.27;;;4.03;;
68821;SDS011;55834;50.870;4.606;2024-02-21T08:32:22;6.90;;;4.97;;
68821;SDS011;55834;50.870;4.606;2024-02-21T08:34:47;8.97;;;5.00;;
68821;SDS011;55834;50.870;4.606;2024-02-21T08:37:12;7.17;;;4.30;;
68821;SDS011;55834;50.870;4.606;2024-02-21T08:39:38;5.23;;;4.30;;
68821;SDS011;55834;50.870;4.606;2024-02-21T08:42:04;7.40;;;4.88;;
68821;SDS011;55834;50.870;4.606;2024-02-21T08:44:30;8.57;;;4.25;;
68821;SDS011;55834;50.870;4.606;2024-02-21T08:46:55;5.97;;;3.83;;
68821;SDS011;55834;50.870;4.606;2024-02-21T08:49:20;7.80;;;3.97;;
68821;SDS011;55834;50.870;4.606;2024-02-21T08:51:46;5.43;;;3.77;;
68821;SDS011;55834;50.870;4.606;2024-02-21T08:54:11;5.95;;;3.63;;
68821;SDS011;55834;50.870;4.606;2024-02-21T08:56:37;7.07;;;3.95;;
68821;SDS011;55834;50.870;4.606;2024-02-21T08:59:02;5.78;;;3.10;;
68821;SDS011;55834;50.870;4.606;2024-02-21T09:01:28;9.20;;;4.28;;
68821;SDS011;55834;50.870;4.606;2024-02-21T09:03:54;8.35;;;4.20;;
68821;SDS011;55834;50.870;4.606;2024-02-21T09:08:46;7.70;;;4.17;;
68821;SDS011;55834;50.870;4.606;2024-02-21T09:11:12;4.60;;;3.43;;
68821;SDS011;55834;50.870;4.606;2024-02-21T09:13:37;4.50;;;3.67;;
68821;SDS011;55834;50.870;4.606;2024-02-21T09:16:03;5.70;;;3.67;;
68821;SDS011;55834;50.870;4.606;2024-02-21T09:18:28;6.20;;;3.50;;
68821;SDS011;55834;50.870;4.606;2024-02-21T09:20:54;8.52;;;3.33;;
68821;SDS011;55834;50.870;4.606;2024-02-21T09:23:20;4.75;;;2.63;;
68821;SDS011;55834;50.870;4.606;2024-02-21T09:25:45;6.22;;;3.90;;
68821;SDS011;55834;50.870;4.606;2024-02-21T09:28:11;5.93;;;3.05;;
68821;SDS011;55834;50.870;4.606;2024-02-21T09:30:38;4.32;;;3.33;;
68821;SDS011;55834;50.870;4.606;2024-02-21T09:33:03;7.57;;;4.00;;
68821;SDS011;55834;50.870;4.606;2024-02-21T09:35:30;7.68;;;4.00;;
68821;SDS011;55834;50.870;4.606;2024-02-21T09:37:55;7.63;;;3.30;;
68821;SDS011;55834;50.870;4.606;2024-02-21T09:40:21;5.95;;;3.50;;
68821;SDS011;55834;50.870;4.606;2024-02-21T09:42:47;6.60;;;2.63;;
68821;SDS011;55834;50.870;4.606;2024-02-21T09:50:33;4.35;;;3.10;;
68821;SDS011;55834;50.870;4.606;2024-02-21T09:53:00;5.43;;;3.47;;
68821;SDS011;55834;50.870;4.606;2024-02-21T09:55:27;7.38;;;3.53;;
68821;SDS011;55834;50.870;4.606;2024-02-21T09:57:57;5.82;;;2.53;;
68821;SDS011;55834;50.870;4.606;2024-02-21T10:00:24;6.82;;;3.38;;
68821;SDS011;55834;50.870;4.606;2024-02-21T10:02:49;6.82;;;3.47;;
68821;SDS011;55834;50.870;4.606;2024-02-21T10:05:15;6.78;;;3.78;;
68821;SDS011;55834;50.870;4.606;2024-02-21T10:07:41;5.90;;;3.17;;
68821;SDS011;55834;50.870;4.606;2024-02-21T10:10:06;9.10;;;3.23;;
68821;SDS011;55834;50.870;4.606;2024-02-21T10:12:32;5.80;;;3.45;;
68821;SDS011;55834;50.870;4.606;2024-02-21T10:15:01;4.87;;;2.77;;
68821;SDS011;55834;50.870;4.606;2024-02-21T10:17:27;9.63;;;3.42;;
68821;SDS011;55834;50.870;4.606;2024-02-21T10:19:53;5.68;;;3.35;;
68821;SDS011;55834;50.870;4.606;2024-02-21T10:22:18;5.20;;;2.90;;
68821;SDS011;55834;50.870;4.606;2024-02-21T10:27:11;9.13;;;3.60;;
68821;SDS011;55834;50.870;4.606;2024-02-21T10:29:37;10.98;;;4.55;;
68821;SDS011;55834;50.870;4.606;2024-02-21T10:32:12;6.57;;;4.00;;
68821;SDS011;55834;50.870;4.606;2024-02-21T10:34:39;6.18;;;3.65;;
68821;SDS011;55834;50.870;4.606;2024-02-21T10:37:06;5.10;;;2.90;;
68821;SDS011;55834;50.870;4.606;2024-02-21T10:39:34;6.90;;;3.38;;
68821;SDS011;55834;50.870;4.606;2024-02-21T10:42:02;6.53;;;2.67;;
68821;SDS011;55834;50.870;4.606;2024-02-21T10:44:29;3.35;;;2.92;;
68821;SDS011;55834;50.870;4.606;2024-02-21T10:46:58;6.30;;;3.58;;
68821;SDS011;55834;50.870;4.606;2024-02-21T10:49:24;8.70;;;4.00;;
68821;SDS011;55834;50.870;4.606;2024-02-21T10:51:55;7.13;;;3.08;;
68821;SDS011;55834;50.870;4.606;2024-02-21T10:54:38;8.70;;;2.88;;
68821;SDS011;55834;50.870;4.606;2024-02-21T10:57:08;11.70;;;3.95;;
68821;SDS011;55834;50.870;4.606;2024-02-21T10:59:37;3.88;;;3.25;;
68821;SDS011;55834;50.870;4.606;2024-02-21T11:02:05;5.22;;;3.38;;
68821;SDS011;55834;50.870;4.606;2024-02-21T11:04:30;7.38;;;3.55;;
68821;SDS011;55834;50.870;4.606;2024-02-21T11:07:01;9.13;;;4.75;;
68821;SDS011;55834;50.870;4.606;2024-02-21T11:09:31;7.68;;;2.72;;
68821;SDS011;55834;50.870;4.606;2024-02-21T11:11:58;9.93;;;2.97;;
68821;SDS011;55834;50.870;4.606;2024-02-21T11:14:26;4.57;;;2.33;;
68821;SDS011;55834;50.870;4.606;2024-02-21T11:16:52;12.27;;;4.10;;
68821;SDS011;55834;50.870;4.606;2024-02-21T11:21:47;15.60;;;3.75;;
68821;SDS011;55834;50.870;4.606;2024-02-21T11:24:13;7.57;;;2.50;;
68821;SDS011;55834;50.870;4.606;2024-02-21T11:26:39;4.30;;;2.42;;
68821;SDS011;55834;50.870;4.606;2024-02-21T11:29:08;6.07;;;3.10;;
68821;SDS011;55834;50.870;4.606;2024-02-21T11:34:11;5.70;;;2.38;;
68821;SDS011;55834;50.870;4.606;2024-02-21T11:36:46;4.20;;;2.00;;
68821;SDS011;55834;50.870;4.606;2024-02-21T11:39:17;5.25;;;2.10;;
68821;SDS011;55834;50.870;4.606;2024-02-21T11:42:06;5.07;;;2.15;;
68821;SDS011;55834;50.870;4.606;2024-02-21T11:44:36;3.83;;;1.60;;
68821;SDS011;55834;50.870;4.606;2024-02-21T11:47:08;2.63;;;2.20;;
68821;SDS011;55834;50.870;4.606;2024-02-21T11:49:36;6.18;;;2.60;;
68821;SDS011;55834;50.870;4.606;2024-02-21T11:52:03;3.58;;;2.00;;
68821;SDS011;55834;50.870;4.606;2024-02-21T11:54:32;4.50;;;2.42;;
68821;SDS011;55834;50.870;4.606;2024-02-21T11:56:58;3.90;;;2.80;;
68821;SDS011;55834;50.870;4.606;2024-02-21T11:59:25;4.43;;;2.85;;
68821;SDS011;55834;50.870;4.606;2024-02-21T12:01:50;2.42;;;1.85;;
68821;SDS011;55834;50.870;4.606;2024-02-21T12:04:19;2.83;;;1.83;;
68821;SDS011;55834;50.870;4.606;2024-02-21T12:06:45;6.05;;;2.03;;
68821;SDS011;55834;50.870;4.606;2024-02-21T12:09:17;4.85;;;2.10;;
68821;SDS011;55834;50.870;4.606;2024-02-21T12:11:43;4.95;;;2.05;;
68821;SDS011;55834;50.870;4.606;2024-02-21T12:14:09;4.00;;;2.10;;
68821;SDS011;55834;50.870;4.606;2024-02-21T12:16:35;4.70;;;2.45;;
68821;SDS011;55834;50.870;4.606;2024-02-21T12:19:02;5.25;;;2.42;;
68821;SDS011;55834;50.870;4.606;2024-02-21T12:21:31;4.30;;;2.55;;
68821;SDS011;55834;50.870;4.606;2024-02-21T12:23:58;6.18;;;2.22;;
68821;SDS011;55834;50.870;4.606;2024-02-21T12:26:23;5.00;;;2.38;;
68821;SDS011;55834;50.870;4.606;2024-02-21T12:28:49;3.88;;;2.38;;
68821;SDS011;55834;50.870;4.606;2024-02-21T12:31:14;2.65;;;2.10;;
68821;SDS011;55834;50.870;4.606;2024-02-21T12:33:41;3.28;;;2.30;;
68821;SDS011;55834;50.870;4.606;2024-02-21T12:36:07;5.20;;;3.05;;
68821;SDS011;55834;50.870;4.606;2024-02-21T12:38:33;3.85;;;1.90;;
68821;SDS011;55834;50.870;4.606;2024-02-21T12:40:59;5.18;;;2.40;;
68821;SDS011;55834;50.870;4.606;2024-02-21T12:43:25;4.93;;;3.03;;
68821;SDS011;55834;50.870;4.606;2024-02-21T12:45:51;2.97;;;2.60;;
68821;SDS011;55834;50.870;4.606;2024-02-21T12:48:17;2.97;;;2.05;;
68821;SDS011;55834;50.870;4.606;2024-02-21T12:50:48;3.97;;;2.33;;
68821;SDS011;55834;50.870;4.606;2024-02-21T12:53:18;4.35;;;2.50;;
68821;SDS011;55834;50.870;4.606;2024-02-21T12:55:46;4.25;;;2.42;;
68821;SDS011;55834;50.870;4.606;2024-02-21T12:58:13;4.05;;;2.85;;
68821;SDS011;55834;50.870;4.606;2024-02-21T13:00:39;11.07;;;3.50;;
68821;SDS011;55834;50.870;4.606;2024-02-21T13:03:05;5.25;;;2.25;;
68821;SDS011;55834;50.870;4.606;2024-02-21T13:05:30;3.77;;;2.00;;
68821;SDS011;55834;50.870;4.606;2024-02-21T13:07:57;5.10;;;3.28;;
68821;SDS011;55834;50.870;4.606;2024-02-21T13:10:23;5.90;;;2.47;;
68821;SDS011;55834;50.870;4.606;2024-02-21T13:12:48;11.50;;;3.00;;
68821;SDS011;55834;50.870;4.606;2024-02-21T13:15:14;4.60;;;2.77;;
68821;SDS011;55834;50.870;4.606;2024-02-21T13:17:41;4.90;;;2.53;;
68821;SDS011;55834;50.870;4.606;2024-02-21T13:20:06;6.40;;;2.50;;
68821;SDS011;55834;50.870;4.606;2024-02-21T13:22:33;2.42;;;2.17;;
68821;SDS011;55834;50.870;4.606;2024-02-21T13:24:59;4.53;;;3.15;;
68821;SDS011;55834;50.870;4.606;2024-02-21T13:27:25;5.18;;;2.92;;
68821;SDS011;55834;50.870;4.606;2024-02-21T13:29:50;3.50;;;2.80;;
68821;SDS011;55834;50.870;4.606;2024-02-21T13:32:15;4.63;;;2.77;;
68821;SDS011;55834;50.870;4.606;2024-02-21T13:34:41;6.13;;;3.17;;
68821;SDS011;55834;50.870;4.606;2024-02-21T13:37:07;6.90;;;3.25;;
68821;SDS011;55834;50.870;4.606;2024-02-21T13:39:34;4.40;;;2.58;;
68821;SDS011;55834;50.870;4.606;2024-02-21T13:42:00;3.65;;;2.60;;
68821;SDS011;55834;50.870;4.606;2024-02-21T13:44:26;4.85;;;2.83;;
68821;SDS011;55834;50.870;4.606;2024-02-21T13:46:51;14.87;;;4.03;;
68821;SDS011;55834;50.870;4.606;2024-02-21T13:49:16;4.57;;;2.27;;
68821;SDS011;55834;50.870;4.606;2024-02-21T13:51:42;5.97;;;2.50;;
68821;SDS011;55834;50.870;4.606;2024-02-21T13:54:09;3.97;;;2.83;;
68821;SDS011;55834;50.870;4.606;2024-02-21T13:56:36;3.35;;;1.80;;
68821;SDS011;55834;50.870;4.606;2024-02-21T13:59:01;6.45;;;2.90;;
68821;SDS011;55834;50.870;4.606;2024-02-21T14:01:27;4.37;;;2.87;;
68821;SDS011;55834;50.870;4.606;2024-02-21T14:03:57;5.95;;;2.70;;
68821;SDS011;55834;50.870;4.606;2024-02-21T14:06:22;4.28;;;2.92;;
68821;SDS011;55834;50.870;4.606;2024-02-21T14:08:47;6.53;;;3.80;;
68821;SDS011;55834;50.870;4.606;2024-02-21T14:11:13;11.93;;;4.82;;
68821;SDS011;55834;50.870;4.606;2024-02-21T14:13:39;7.85;;;4.88;;
68821;SDS011;55834;50.870;4.606;2024-02-21T14:16:08;5.75;;;3.92;;
68821;SDS011;55834;50.870;4.606;2024-02-21T14:18:36;15.35;;;6.32;;
68821;SDS011;55834;50.870;4.606;2024-02-21T14:21:03;6.30;;;3.05;;
68821;SDS011;55834;50.870;4.606;2024-02-21T14:23:28;16.30;;;8.15;;
68821;SDS011;55834;50.870;4.606;2024-02-21T14:25:54;20.52;;;9.63;;
68821;SDS011;55834;50.870;4.606;2024-02-21T14:28:19;11.27;;;6.43;;
68821;SDS011;55834;50.870;4.606;2024-02-21T14:30:45;6.40;;;4.93;;
68821;SDS011;55834;50.870;4.606;2024-02-21T14:33:12;8.25;;;4.22;;
68821;SDS011;55834;50.870;4.606;2024-02-21T14:35:38;7.90;;;4.32;;
68821;SDS011;55834;50.870;4.606;2024-02-21T14:38:03;14.20;;;5.90;;
68821;SDS011;55834;50.870;4.606;2024-02-21T14:40:29;6.85;;;4.20;;
68821;SDS011;55834;50.870;4.606;2024-02-21T14:42:55;4.32;;;3.33;;
68821;SDS011;55834;50.870;4.606;2024-02-21T14:45:21;4.00;;;3.40;;
68821;SDS011;55834;50.870;4.606;2024-02-21T14:47:48;4.55;;;3.33;;
68821;SDS011;55834;50.870;4.606;2024-02-21T14:50:13;7.13;;;4.60;;
68821;SDS011;55834;50.870;4.606;2024-02-21T14:52:39;26.50;;;11.43;;